sensor_id;sensor_type;location;lat;lon;timestamp;pressure;altitude;pressure_sealevel;temperature
76009;BMP280;64700;52.130;21.270;2023-03-16T00:11:14;100734.06;;;19.74
76009;BMP280;64700;52.130;21.270;2023-03-16T00:30:29;100742.97;;;19.83
76009;BMP280;64700;52.130;21.270;2023-03-16T00:36:52;100748.28;;;19.96
76009;BMP280;64700;52.130;21.270;2023-03-16T00:39:28;100748.44;;;19.92
76009;BMP280;64700;52.130;21.270;2023-03-16T00:45:00;100749.03;;;19.96
76009;BMP280;64700;52.130;21.270;2023-03-16T00:47:51;100759.91;;;19.96
76009;BMP280;64700;52.130;21.270;2023-03-16T00:50:30;100752.34;;;20.00
76009;BMP280;64700;52.130;21.270;2023-03-16T00:53:21;100759.28;;;20.01
76009;BMP280;64700;52.130;21.270;2023-03-16T00:56:12;100756.88;;;20.03
76009;BMP280;64700;52.130;21.270;2023-03-16T00:59:10;100760.06;;;20.02
76009;BMP280;64700;52.130;21.270;2023-03-16T01:01:55;100761.53;;;20.03
76009;BMP280;64700;52.130;21.270;2023-03-16T01:07:49;100766.69;;;20.01
76009;BMP280;64700;52.130;21.270;2023-03-16T01:10:24;100765.81;;;20.04
76009;BMP280;64700;52.130;21.270;2023-03-16T01:13:05;100772.41;;;20.03
76009;BMP280;64700;52.130;21.270;2023-03-16T01:15:53;100771.22;;;20.04
76009;BMP280;64700;52.130;21.270;2023-03-16T01:18:37;100774.97;;;20.06
76009;BMP280;64700;52.130;21.270;2023-03-16T01:21:26;100779.38;;;20.04
76009;BMP280;64700;52.130;21.270;2023-03-16T01:24:08;100780.69;;;19.99
76009;BMP280;64700;52.130;21.270;2023-03-16T01:26:56;100781.91;;;19.98
76009;BMP280;64700;52.130;21.270;2023-03-16T01:29:32;100786.56;;;19.98
76009;BMP280;64700;52.130;21.270;2023-03-16T01:32:09;100782.66;;;19.99
76009;BMP280;64700;52.130;21.270;2023-03-16T01:34:52;100783.13;;;19.97
76009;BMP280;64700;52.130;21.270;2023-03-16T01:43:10;100785.53;;;19.95
76009;BMP280;64700;52.130;21.270;2023-03-16T01:52:13;100797.91;;;19.96
76009;BMP280;64700;52.130;21.270;2023-03-16T01:54:48;100789.16;;;19.92
76009;BMP280;64700;52.130;21.270;2023-03-16T01:57:20;100790.66;;;19.93
76009;BMP280;64700;52.130;21.270;2023-03-16T02:03:23;100791.41;;;19.94
76009;BMP280;64700;52.130;21.270;2023-03-16T02:06:17;100790.47;;;19.88
76009;BMP280;64700;52.130;21.270;2023-03-16T02:08:52;100796.53;;;19.92
76009;BMP280;64700;52.130;21.270;2023-03-16T02:11:27;100789.91;;;19.93
76009;BMP280;64700;52.130;21.270;2023-03-16T02:17:21;100800.44;;;19.91
76009;BMP280;64700;52.130;21.270;2023-03-16T02:22:52;100805.25;;;19.87
76009;BMP280;64700;52.130;21.270;2023-03-16T02:25:28;100809.63;;;19.84
76009;BMP280;64700;52.130;21.270;2023-03-16T02:31:18;100808.56;;;19.82
76009;BMP280;64700;52.130;21.270;2023-03-16T02:45:55;100818.81;;;19.78
76009;BMP280;64700;52.130;21.270;2023-03-16T02:51:19;100828.84;;;19.68
76009;BMP280;64700;52.130;21.270;2023-03-16T02:59:23;100827.81;;;19.65
76009;BMP280;64700;52.130;21.270;2023-03-16T03:02:04;100832.16;;;19.63
76009;BMP280;64700;52.130;21.270;2023-03-16T03:04:39;100840.28;;;19.63
76009;BMP280;64700;52.130;21.270;2023-03-16T03:07:08;100842.56;;;19.64
76009;BMP280;64700;52.130;21.270;2023-03-16T03:09:39;100843.47;;;19.61
76009;BMP280;64700;52.130;21.270;2023-03-16T03:12:11;100850.84;;;19.61
76009;BMP280;64700;52.130;21.270;2023-03-16T03:14:45;100860.94;;;19.60
76009;BMP280;64700;52.130;21.270;2023-03-16T03:17:13;100860.63;;;19.58
76009;BMP280;64700;52.130;21.270;2023-03-16T03:20:01;100863.66;;;19.60
76009;BMP280;64700;52.130;21.270;2023-03-16T03:22:46;100863.34;;;19.58
76009;BMP280;64700;52.130;21.270;2023-03-16T03:25:21;100860.50;;;19.62
76009;BMP280;64700;52.130;21.270;2023-03-16T03:28:01;100858.78;;;19.55
76009;BMP280;64700;52.130;21.270;2023-03-16T03:30:32;100859.25;;;19.54
76009;BMP280;64700;52.130;21.270;2023-03-16T03:33:08;100857.72;;;19.53
76009;BMP280;64700;52.130;21.270;2023-03-16T03:35:39;100865.72;;;19.56
76009;BMP280;64700;52.130;21.270;2023-03-16T03:38:09;100861.22;;;19.53
76009;BMP280;64700;52.130;21.270;2023-03-16T03:40:54;100865.13;;;19.52
76009;BMP280;64700;52.130;21.270;2023-03-16T03:43:25;100880.19;;;19.53
76009;BMP280;64700;52.130;21.270;2023-03-16T03:45:57;100885.16;;;19.55
76009;BMP280;64700;52.130;21.270;2023-03-16T03:48:28;100886.63;;;19.47
76009;BMP280;64700;52.130;21.270;2023-03-16T03:51:01;100893.13;;;19.49
76009;BMP280;64700;52.130;21.270;2023-03-16T03:53:29;100895.09;;;19.49
76009;BMP280;64700;52.130;21.270;2023-03-16T03:56:17;100888.59;;;19.46
76009;BMP280;64700;52.130;21.270;2023-03-16T03:58:43;100898.34;;;19.44
76009;BMP280;64700;52.130;21.270;2023-03-16T04:01:16;100896.84;;;19.43
76009;BMP280;64700;52.130;21.270;2023-03-16T04:03:42;100903.78;;;19.44
76009;BMP280;64700;52.130;21.270;2023-03-16T04:06:15;100896.84;;;19.43
76009;BMP280;64700;52.130;21.270;2023-03-16T04:08:51;100903.44;;;19.42
76009;BMP280;64700;52.130;21.270;2023-03-16T04:14:14;100910.41;;;19.43
76009;BMP280;64700;52.130;21.270;2023-03-16T04:16:51;100905.88;;;19.40
76009;BMP280;64700;52.130;21.270;2023-03-16T04:19:18;100900.59;;;19.36
76009;BMP280;64700;52.130;21.270;2023-03-16T04:21:54;100914.31;;;19.42
76009;BMP280;64700;52.130;21.270;2023-03-16T04:24:30;100908.59;;;19.40
76009;BMP280;64700;52.130;21.270;2023-03-16T04:26:59;100912.16;;;19.37
76009;BMP280;64700;52.130;21.270;2023-03-16T04:29:30;100910.69;;;19.36
76009;BMP280;64700;52.130;21.270;2023-03-16T04:32:11;100909.03;;;19.38
76009;BMP280;64700;52.130;21.270;2023-03-16T04:34:45;100915.97;;;19.39
76009;BMP280;64700;52.130;21.270;2023-03-16T04:37:13;100919.88;;;19.38
76009;BMP280;64700;52.130;21.270;2023-03-16T04:39:38;100930.09;;;19.34
76009;BMP280;64700;52.130;21.270;2023-03-16T04:42:07;100928.28;;;19.31
76009;BMP280;64700;52.130;21.270;2023-03-16T04:44:38;100925.66;;;19.27
76009;BMP280;64700;52.130;21.270;2023-03-16T04:47:12;100929.03;;;19.32
76009;BMP280;64700;52.130;21.270;2023-03-16T04:49:41;100932.59;;;19.28
76009;BMP280;64700;52.130;21.270;2023-03-16T04:52:15;100941.06;;;19.31
76009;BMP280;64700;52.130;21.270;2023-03-16T04:54:41;100942.25;;;19.30
76009;BMP280;64700;52.130;21.270;2023-03-16T04:57:11;100951.56;;;19.28
76009;BMP280;64700;52.130;21.270;2023-03-16T04:59:48;100951.28;;;19.26
76009;BMP280;64700;52.130;21.270;2023-03-16T05:02:19;100956.22;;;19.28
76009;BMP280;64700;52.130;21.270;2023-03-16T05:04:59;100952.31;;;19.29
76009;BMP280;64700;52.130;21.270;2023-03-16T05:07:29;100956.69;;;19.26
76009;BMP280;64700;52.130;21.270;2023-03-16T05:10:02;100948.69;;;19.23
76009;BMP280;64700;52.130;21.270;2023-03-16T05:12:33;100953.66;;;19.24
76009;BMP280;64700;52.130;21.270;2023-03-16T05:15:10;100954.56;;;19.21
76009;BMP280;64700;52.130;21.270;2023-03-16T05:17:47;100945.66;;;19.21
76009;BMP280;64700;52.130;21.270;2023-03-16T05:20:33;100947.94;;;19.22
76009;BMP280;64700;52.130;21.270;2023-03-16T05:23:04;100951.41;;;19.23
76009;BMP280;64700;52.130;21.270;2023-03-16T05:25:36;100952.13;;;19.23
76009;BMP280;64700;52.130;21.270;2023-03-16T05:28:27;100955.75;;;19.20
76009;BMP280;64700;52.130;21.270;2023-03-16T05:34:36;100959.34;;;19.17
76009;BMP280;64700;52.130;21.270;2023-03-16T05:37:07;100960.19;;;19.14
76009;BMP280;64700;52.130;21.270;2023-03-16T05:39:35;100962.34;;;19.19
76009;BMP280;64700;52.130;21.270;2023-03-16T05:44:53;100956.06;;;19.22
76009;BMP280;64700;52.130;21.270;2023-03-16T05:47:35;100959.97;;;19.21
76009;BMP280;64700;52.130;21.270;2023-03-16T05:50:09;100966.78;;;19.26
76009;BMP280;64700;52.130;21.270;2023-03-16T05:52:44;100970.16;;;19.30
76009;BMP280;64700;52.130;21.270;2023-03-16T05:58:14;100977.50;;;19.30
76009;BMP280;64700;52.130;21.270;2023-03-16T06:00:41;100981.63;;;19.34
76009;BMP280;64700;52.130;21.270;2023-03-16T06:06:10;100990.50;;;19.35
76009;BMP280;64700;52.130;21.270;2023-03-16T06:11:17;100983.75;;;19.39
76009;BMP280;64700;52.130;21.270;2023-03-16T06:13:50;100982.66;;;19.37
76009;BMP280;64700;52.130;21.270;2023-03-16T06:16:18;100987.66;;;19.38
76009;BMP280;64700;52.130;21.270;2023-03-16T06:18:47;100987.53;;;19.42
76009;BMP280;64700;52.130;21.270;2023-03-16T06:21:14;100986.22;;;19.46
76009;BMP280;64700;52.130;21.270;2023-03-16T06:23:40;100980.16;;;19.42
76009;BMP280;64700;52.130;21.270;2023-03-16T06:26:05;100986.69;;;19.45
76009;BMP280;64700;52.130;21.270;2023-03-16T06:28:31;100992.75;;;19.49
76009;BMP280;64700;52.130;21.270;2023-03-16T06:31:08;101000.41;;;19.50
76009;BMP280;64700;52.130;21.270;2023-03-16T06:33:42;100998.16;;;19.49
76009;BMP280;64700;52.130;21.270;2023-03-16T06:36:26;101003.03;;;19.54
76009;BMP280;64700;52.130;21.270;2023-03-16T06:38:54;101002.56;;;19.55
76009;BMP280;64700;52.130;21.270;2023-03-16T06:41:25;101007.13;;;19.58
76009;BMP280;64700;52.130;21.270;2023-03-16T06:44:23;101001.78;;;19.55
76009;BMP280;64700;52.130;21.270;2023-03-16T06:47:16;100998.22;;;19.58
76009;BMP280;64700;52.130;21.270;2023-03-16T06:55:43;101007.31;;;19.64
76009;BMP280;64700;52.130;21.270;2023-03-16T06:58:52;101009.88;;;19.67
76009;BMP280;64700;52.130;21.270;2023-03-16T08:52:25;101060.22;;;20.12
76009;BMP280;64700;52.130;21.270;2023-03-16T09:11:40;101079.84;;;20.16
76009;BMP280;64700;52.130;21.270;2023-03-16T09:37:06;101084.09;;;20.48
76009;BMP280;64700;52.130;21.270;2023-03-16T09:55:00;101085.97;;;20.60
76009;BMP280;64700;52.130;21.270;2023-03-16T10:12:44;101098.25;;;20.65
76009;BMP280;64700;52.130;21.270;2023-03-16T10:16:24;101089.97;;;20.46
76009;BMP280;64700;52.130;21.270;2023-03-16T10:18:42;101089.78;;;20.72
76009;BMP280;64700;52.130;21.270;2023-03-16T10:30:37;101090.06;;;20.74
76009;BMP280;64700;52.130;21.270;2023-03-16T10:33:16;101090.84;;;20.74
76009;BMP280;64700;52.130;21.270;2023-03-16T10:39:13;101090.97;;;20.71
76009;BMP280;64700;52.130;21.270;2023-03-16T10:48:30;101089.28;;;20.55
76009;BMP280;64700;52.130;21.270;2023-03-16T10:50:57;101078.84;;;20.54
76009;BMP280;64700;52.130;21.270;2023-03-16T10:53:34;101082.31;;;20.54
76009;BMP280;64700;52.130;21.270;2023-03-16T10:56:25;101084.75;;;20.52
76009;BMP280;64700;52.130;21.270;2023-03-16T11:08:24;101092.84;;;20.43
76009;BMP280;64700;52.130;21.270;2023-03-16T11:14:01;101101.28;;;20.36
76009;BMP280;64700;52.130;21.270;2023-03-16T11:19:55;101102.84;;;20.24
76009;BMP280;64700;52.130;21.270;2023-03-16T11:31:41;101081.50;;;20.14
76009;BMP280;64700;52.130;21.270;2023-03-16T12:17:33;101085.59;;;20.18
76009;BMP280;64700;52.130;21.270;2023-03-16T12:23:19;101077.13;;;20.16
76009;BMP280;64700;52.130;21.270;2023-03-16T12:25:51;101082.28;;;20.14
76009;BMP280;64700;52.130;21.270;2023-03-16T12:28:26;101097.31;;;20.06
76009;BMP280;64700;52.130;21.270;2023-03-16T12:52:51;101102.53;;;20.00
76009;BMP280;64700;52.130;21.270;2023-03-16T12:58:29;101116.06;;;19.91
76009;BMP280;64700;52.130;21.270;2023-03-16T13:07:50;101117.59;;;19.92
76009;BMP280;64700;52.130;21.270;2023-03-16T13:19:45;101105.31;;;19.88
76009;BMP280;64700;52.130;21.270;2023-03-16T13:32:15;101117.00;;;19.97
76009;BMP280;64700;52.130;21.270;2023-03-16T16:08:36;101181.50;;;20.59
76009;BMP280;64700;52.130;21.270;2023-03-16T18:43:52;101322.91;;;20.33
76009;BMP280;64700;52.130;21.270;2023-03-16T19:56:39;101375.31;;;20.21
76009;BMP280;64700;52.130;21.270;2023-03-16T20:02:28;101378.69;;;20.13
76009;BMP280;64700;52.130;21.270;2023-03-16T20:05:05;101382.47;;;20.15
76009;BMP280;64700;52.130;21.270;2023-03-16T20:13:55;101388.06;;;20.46
76009;BMP280;64700;52.130;21.270;2023-03-16T20:16:32;101382.44;;;20.40
76009;BMP280;64700;52.130;21.270;2023-03-16T20:19:08;101388.75;;;20.50
76009;BMP280;64700;52.130;21.270;2023-03-16T20:21:40;101389.38;;;20.54
76009;BMP280;64700;52.130;21.270;2023-03-16T20:24:14;101389.66;;;20.34
76009;BMP280;64700;52.130;21.270;2023-03-16T20:26:47;101383.84;;;20.32
76009;BMP280;64700;52.130;21.270;2023-03-16T20:29:33;101388.22;;;20.30
76009;BMP280;64700;52.130;21.270;2023-03-16T20:32:00;101393.66;;;20.17
76009;BMP280;64700;52.130;21.270;2023-03-16T20:34:32;101390.19;;;20.17
76009;BMP280;64700;52.130;21.270;2023-03-16T20:37:00;101383.16;;;20.06
76009;BMP280;64700;52.130;21.270;2023-03-16T20:39:27;101389.81;;;20.05
76009;BMP280;64700;52.130;21.270;2023-03-16T20:42:00;101395.41;;;20.11
76009;BMP280;64700;52.130;21.270;2023-03-16T20:44:37;101387.91;;;20.02
76009;BMP280;64700;52.130;21.270;2023-03-16T20:47:20;101384.75;;;20.17
76009;BMP280;64700;52.130;21.270;2023-03-16T20:49:49;101388.75;;;20.37
76009;BMP280;64700;52.130;21.270;2023-03-16T20:52:24;101394.66;;;20.36
76009;BMP280;64700;52.130;21.270;2023-03-16T20:54:55;101396.16;;;20.37
76009;BMP280;64700;52.130;21.270;2023-03-16T20:57:42;101387.34;;;20.33
76009;BMP280;64700;52.130;21.270;2023-03-16T21:03:20;101393.16;;;20.22
76009;BMP280;64700;52.130;21.270;2023-03-16T21:08:34;101402.69;;;20.27
76009;BMP280;64700;52.130;21.270;2023-03-16T21:11:00;101400.28;;;20.29
76009;BMP280;64700;52.130;21.270;2023-03-16T21:13:33;101405.41;;;20.27
76009;BMP280;64700;52.130;21.270;2023-03-16T21:16:01;101402.25;;;20.16
76009;BMP280;64700;52.130;21.270;2023-03-16T21:18:36;101397.16;;;20.18
76009;BMP280;64700;52.130;21.270;2023-03-16T21:21:02;101401.06;;;20.17
76009;BMP280;64700;52.130;21.270;2023-03-16T21:23:29;101397.13;;;20.30
76009;BMP280;64700;52.130;21.270;2023-03-16T21:26:00;101400.81;;;20.36
76009;BMP280;64700;52.130;21.270;2023-03-16T21:28:43;101409.72;;;20.37
76009;BMP280;64700;52.130;21.270;2023-03-16T21:31:27;101406.34;;;20.33
76009;BMP280;64700;52.130;21.270;2023-03-16T21:34:04;101406.91;;;20.28
76009;BMP280;64700;52.130;21.270;2023-03-16T21:36:38;101395.88;;;20.22
76009;BMP280;64700;52.130;21.270;2023-03-16T21:39:04;101397.25;;;20.27
76009;BMP280;64700;52.130;21.270;2023-03-16T21:41:37;101394.22;;;20.25
76009;BMP280;64700;52.130;21.270;2023-03-16T21:44:05;101391.94;;;20.23
76009;BMP280;64700;52.130;21.270;2023-03-16T21:46:33;101389.25;;;20.23
76009;BMP280;64700;52.130;21.270;2023-03-16T21:49:08;101390.63;;;20.15
76009;BMP280;64700;52.130;21.270;2023-03-16T21:51:34;101392.81;;;20.20
76009;BMP280;64700;52.130;21.270;2023-03-16T21:54:02;101399.66;;;20.25
76009;BMP280;64700;52.130;21.270;2023-03-16T21:56:28;101401.16;;;20.26
76009;BMP280;64700;52.130;21.270;2023-03-16T21:58:56;101402.06;;;20.23
76009;BMP280;64700;52.130;21.270;2023-03-16T22:01:31;101394.97;;;20.13
76009;BMP280;64700;52.130;21.270;2023-03-16T22:04:01;101395.97;;;20.19
76009;BMP280;64700;52.130;21.270;2023-03-16T22:06:42;101403.13;;;20.13
76009;BMP280;64700;52.130;21.270;2023-03-16T22:09:16;101394.09;;;20.16
76009;BMP280;64700;52.130;21.270;2023-03-16T22:11:44;101394.75;;;20.20
76009;BMP280;64700;52.130;21.270;2023-03-16T22:14:10;101398.34;;;20.17
76009;BMP280;64700;52.130;21.270;2023-03-16T22:16:40;101396.06;;;20.15
76009;BMP280;64700;52.130;21.270;2023-03-16T22:19:07;101396.38;;;20.17
76009;BMP280;64700;52.130;21.270;2023-03-16T22:21:35;101398.47;;;20.13
76009;BMP280;64700;52.130;21.270;2023-03-16T22:24:05;101407.16;;;20.21
76009;BMP280;64700;52.130;21.270;2023-03-16T22:26:34;101407.16;;;20.21
76009;BMP280;64700;52.130;21.270;2023-03-16T22:29:26;101401.16;;;20.26
76009;BMP280;64700;52.130;21.270;2023-03-16T22:31:55;101410.06;;;20.39
76009;BMP280;64700;52.130;21.270;2023-03-16T22:36:53;101410.63;;;20.34
76009;BMP280;64700;52.130;21.270;2023-03-16T22:39:19;101417.47;;;20.26
76009;BMP280;64700;52.130;21.270;2023-03-16T22:41:44;101402.50;;;20.21
76009;BMP280;64700;52.130;21.270;2023-03-16T22:44:12;101408.34;;;20.20
76009;BMP280;64700;52.130;21.270;2023-03-16T22:46:41;101411.41;;;20.22
76009;BMP280;64700;52.130;21.270;2023-03-16T22:49:07;101409.00;;;20.11
76009;BMP280;64700;52.130;21.270;2023-03-16T22:51:37;101414.63;;;20.17
76009;BMP280;64700;52.130;21.270;2023-03-16T22:54:06;101402.38;;;20.12
76009;BMP280;64700;52.130;21.270;2023-03-16T22:56:32;101415.06;;;20.02
76009;BMP280;64700;52.130;21.270;2023-03-16T22:58:59;101411.53;;;20.05
76009;BMP280;64700;52.130;21.270;2023-03-16T23:03:54;101419.97;;;20.07
76009;BMP280;64700;52.130;21.270;2023-03-16T23:08:53;101416.72;;;20.00
76009;BMP280;64700;52.130;21.270;2023-03-16T23:11:31;101419.66;;;20.05
76009;BMP280;64700;52.130;21.270;2023-03-16T23:13:57;101423.22;;;20.02
76009;BMP280;64700;52.130;21.270;2023-03-16T23:16:27;101434.94;;;19.99
76009;BMP280;64700;52.130;21.270;2023-03-16T23:18:56;101433.13;;;19.96
76009;BMP280;64700;52.130;21.270;2023-03-16T23:21:32;101434.94;;;19.99
76009;BMP280;64700;52.130;21.270;2023-03-16T23:24:01;101431.94;;;19.97
76009;BMP280;64700;52.130;21.270;2023-03-16T23:26:29;101427.91;;;20.02
76009;BMP280;64700;52.130;21.270;2023-03-16T23:28:58;101431.34;;;20.02
76009;BMP280;64700;52.130;21.270;2023-03-16T23:31:29;101432.78;;;19.94
76009;BMP280;64700;52.130;21.270;2023-03-16T23:33:54;101430.72;;;19.98
76009;BMP280;64700;52.130;21.270;2023-03-16T23:36:46;101441.41;;;20.05
76009;BMP280;64700;52.130;21.270;2023-03-16T23:39:29;101439.19;;;20.00
76009;BMP280;64700;52.130;21.270;2023-03-16T23:44:48;101447.13;;;20.07
76009;BMP280;64700;52.130;21.270;2023-03-16T23:47:28;101454.50;;;19.94
76009;BMP280;64700;52.130;21.270;2023-03-16T23:53:21;101448.66;;;19.96
76009;BMP280;64700;52.130;21.270;2023-03-16T23:56:07;101450.81;;;20.01
76009;BMP280;64700;52.130;21.270;2023-03-16T23:58:56;101458.44;;;19.93
